CheckWX is a tool to help pilots better visualize weather data.  It is not intended as a substitute for an official pre-flight weather briefing.

02:49:46 UTC

VTCL METAR
Lampang Airport
Thailand
Current

50 mins ago

VTCL 050200Z 20004KT 150V240 9999 BKN025 29/22 Q1008 NOSIG
Observed
Jul-5 @ 02:00 UTC
Wind
  • 200° at 4 KTS
Visibility
10,000+ meters
Flight Rules
MVFR
Cloud Levels
  • Broken at 2,500' AGL
Temperature
29°C / 84°F
Dewpoint
22°C / 72°F
Humidity
66%
Altimeter
29.76" Hg
Pressure
1007.92 hPa
Previous

2 hours ago

VTCL 050100Z 18003KT 150V210 9999 BKN025 28/22 Q1008 NOSIG
Observed
Jul-5 @ 01:00 UTC
Wind
  • 180° at 3 KTS
Visibility
10,000+ meters
Flight Rules
MVFR
Cloud Levels
  • Broken at 2,500' AGL
Temperature
28°C / 82°F
Dewpoint
22°C / 72°F
Humidity
70%
Altimeter
29.76" Hg
Pressure
1007.92 hPa
Previous

3 hours ago

VTCL 050000Z 00000KT 9999 BKN025 26/23 Q1008 NOSIG
Observed
Jul-5 @ 00:00 UTC
Visibility
10,000+ meters
Flight Rules
MVFR
Cloud Levels
  • Broken at 2,500' AGL
Temperature
26°C / 79°F
Dewpoint
23°C / 73°F
Humidity
84%
Altimeter
29.76" Hg
Pressure
1007.92 hPa